Time;durP1;ratioP1;P1;durP2;ratioP2;P2;SDS_P1;SDS_P2;PMS_P1;PMS_P2;Temp;Humidity;BMP_temperature;BMP_pressure;BME280_temperature;BME280_humidity;BME280_pressure;Samples;Min_cycle;Max_cycle;Signal;HPM_P1;HPM_P2
2021/05/02 00:01:37;;;;;;;1.10;0.80;;;24.00;38.40;;;;;;5033004;28;20383;-66
2021/05/02 00:04:03;;;;;;;1.10;0.80;;;23.90;38.30;;;;;;5032681;28;20452;-67
2021/05/02 00:06:30;;;;;;;1.10;0.80;;;24.00;38.30;;;;;;5032245;28;20491;-66
2021/05/02 00:08:55;;;;;;;1.55;0.88;;;23.90;38.30;;;;;;5032203;28;20415;-67
2021/05/02 00:11:21;;;;;;;1.30;0.80;;;23.90;38.30;;;;;;5032662;28;20754;-66
2021/05/02 00:13:47;;;;;;;1.15;0.80;;;24.00;38.20;;;;;;5032756;28;20387;-64
2021/05/02 00:16:13;;;;;;;1.50;0.80;;;24.00;38.30;;;;;;5032525;28;20452;-66
2021/05/02 00:18:39;;;;;;;1.42;0.85;;;23.90;38.30;;;;;;5032793;28;20391;-66
2021/05/02 00:21:10;;;;;;;1.00;0.63;;;24.00;38.20;;;;;;5032038;28;20395;-66
2021/05/02 00:23:37;;;;;;;1.30;0.80;;;24.00;38.20;;;;;;5032673;28;20379;-66
2021/05/02 00:26:04;;;;;;;1.15;0.70;;;24.00;38.20;;;;;;5032665;28;20387;-67
2021/05/02 00:28:31;;;;;;;1.10;0.80;;;23.90;38.20;;;;;;5031997;28;20486;-66
2021/05/02 00:30:58;;;;;;;1.77;1.00;;;23.90;38.20;;;;;;5032059;28;20388;-67
2021/05/02 00:33:24;;;;;;;3.25;1.13;;;23.90;38.30;;;;;;5032547;28;20391;-67
2021/05/02 00:35:51;;;;;;;3.47;0.90;;;23.90;38.30;;;;;;5032361;28;20882;-67
2021/05/02 00:38:17;;;;;;;3.08;1.05;;;23.90;38.40;;;;;;5032207;28;20470;-64
2021/05/02 00:40:43;;;;;;;2.77;0.90;;;23.90;38.40;;;;;;5032278;28;20483;-66
2021/05/02 00:43:13;;;;;;;2.40;0.90;;;24.00;38.40;;;;;;5031809;28;20521;-67
2021/05/02 00:46:02;;;;;;;1.70;0.90;;;24.00;38.40;;;;;;5030807;28;20402;-67
2021/05/02 00:48:36;;;;;;;2.58;0.90;;;23.90;38.40;;;;;;5029859;28;20791;-65
2021/05/02 00:51:05;;;;;;;1.30;0.90;;;23.90;38.40;;;;;;5029712;28;20417;-67
2021/05/02 00:53:45;;;;;;;1.88;0.82;;;23.90;38.40;;;;;;5047271;28;20403;-67
2021/05/02 00:56:27;;;;;;;3.85;0.88;;;23.90;38.40;;;;;;5031690;28;20929;-66
2021/05/02 00:58:54;;;;;;;1.42;0.70;;;23.90;38.30;;;;;;5031586;28;20398;-67
2021/05/02 01:01:22;;;;;;;1.17;0.70;;;23.90;38.30;;;;;;5031913;28;20449;-67
2021/05/02 01:03:49;;;;;;;1.63;0.90;;;23.80;38.30;;;;;;5031724;28;20387;-66
2021/05/02 01:06:20;;;;;;;1.70;0.70;;;23.90;38.30;;;;;;5031011;28;20399;-66
2021/05/02 01:08:49;;;;;;;1.13;0.73;;;23.80;38.30;;;;;;5031829;28;20429;-66
2021/05/02 01:11:16;;;;;;;2.03;0.80;;;23.80;38.20;;;;;;5031476;28;20398;-66
2021/05/02 01:13:50;;;;;;;1.70;0.73;;;23.80;38.20;;;;;;5031872;28;20387;-66
2021/05/02 01:16:17;;;;;;;1.33;0.50;;;23.90;38.20;;;;;;5031753;28;20391;-66
2021/05/02 01:18:43;;;;;;;1.50;0.77;;;23.80;38.10;;;;;;5031887;28;20441;-67
2021/05/02 01:21:12;;;;;;;1.75;0.75;;;23.80;38.00;;;;;;5031188;28;20395;-66
2021/05/02 01:23:39;;;;;;;1.02;0.60;;;23.80;38.00;;;;;;5031726;28;20402;-66
2021/05/02 01:26:05;;;;;;;1.10;0.50;;;23.80;38.00;;;;;;5031612;28;20422;-66
2021/05/02 01:28:30;;;;;;;1.35;0.70;;;23.80;38.00;;;;;;5031552;28;20430;-64
2021/05/02 01:30:57;;;;;;;1.27;0.60;;;23.80;38.00;;;;;;5031280;28;20486;-66
2021/05/02 01:33:23;;;;;;;1.20;0.60;;;23.80;38.00;;;;;;5031663;28;20383;-63
2021/05/02 01:35:49;;;;;;;1.05;0.50;;;23.80;38.10;;;;;;5031577;28;20391;-65
2021/05/02 01:38:16;;;;;;;1.45;0.63;;;23.80;37.80;;;;;;5031524;28;20422;-62
2021/05/02 01:40:42;;;;;;;1.60;0.70;;;23.80;37.90;;;;;;5031519;28;20445;-67
2021/05/02 01:43:08;;;;;;;0.82;0.50;;;23.80;37.90;;;;;;5029685;28;20395;-66
2021/05/02 01:45:34;;;;;;;1.00;0.57;;;23.70;37.90;;;;;;5031724;28;20384;-65
2021/05/02 01:48:05;;;;;;;1.05;0.55;;;23.80;37.90;;;;;;5031344;28;20874;-67
2021/05/02 01:50:45;;;;;;;1.25;0.57;;;23.80;37.90;;;;;;5031418;28;20419;-65
2021/05/02 01:53:13;;;;;;;1.38;0.50;;;23.80;37.90;;;;;;5030809;28;20389;-64
2021/05/02 01:55:40;;;;;;;0.70;0.40;;;23.70;37.80;;;;;;5031427;28;20394;-66
2021/05/02 01:58:08;;;;;;;0.63;0.40;;;23.70;37.90;;;;;;5031284;28;20390;-66
2021/05/02 02:00:49;;;;;;;1.10;0.57;;;23.70;37.80;;;;;;5033840;28;20465;-65
2021/05/02 02:03:17;;;;;;;1.00;0.50;;;23.70;37.80;;;;;;5034897;28;20383;-65
2021/05/02 02:05:42;;;;;;;1.27;0.50;;;23.70;37.80;;;;;;5035002;28;20875;-67
2021/05/02 02:08:09;;;;;;;0.70;0.40;;;23.70;37.80;;;;;;5034086;28;20403;-65
2021/05/02 02:10:36;;;;;;;0.70;0.40;;;23.70;37.80;;;;;;5035046;28;20419;-66
2021/05/02 02:13:02;;;;;;;0.80;0.45;;;23.70;37.80;;;;;;5034542;28;20465;-64
2021/05/02 02:15:30;;;;;;;0.60;0.40;;;23.70;37.80;;;;;;5035007;28;20449;-65
2021/05/02 02:17:56;;;;;;;0.50;0.32;;;23.70;37.80;;;;;;5035037;28;20389;-63
2021/05/02 02:20:23;;;;;;;1.00;0.40;;;23.70;37.70;;;;;;5034966;28;20399;-65
2021/05/02 02:22:54;;;;;;;1.23;0.40;;;23.70;37.80;;;;;;5034918;28;20387;-64
2021/05/02 02:25:23;;;;;;;0.77;0.40;;;23.70;37.80;;;;;;5034482;28;20407;-66
2021/05/02 02:27:50;;;;;;;0.70;0.30;;;23.70;37.80;;;;;;5034766;28;20790;-64
2021/05/02 02:30:19;;;;;;;0.73;0.40;;;23.70;37.80;;;;;;5034655;28;20410;-65
2021/05/02 02:32:47;;;;;;;0.95;0.40;;;23.60;37.70;;;;;;5033602;28;20433;-66
2021/05/02 02:35:15;;;;;;;0.50;0.30;;;23.70;37.70;;;;;;5034271;28;20383;-66
2021/05/02 02:37:45;;;;;;;0.50;0.35;;;23.60;37.70;;;;;;5034669;28;20885;-66
2021/05/02 02:40:14;;;;;;;0.65;0.30;;;23.60;37.60;;;;;;5034506;28;20948;-65
2021/05/02 02:42:43;;;;;;;0.95;0.65;;;23.60;37.60;;;;;;5034596;28;20913;-66
2021/05/02 02:45:10;;;;;;;1.73;0.38;;;23.60;37.60;;;;;;5032755;28;20474;-65
2021/05/02 02:47:39;;;;;;;0.50;0.30;;;23.60;37.60;;;;;;5034434;28;20379;-66
2021/05/02 02:50:10;;;;;;;0.80;0.40;;;23.60;37.50;;;;;;5034306;28;20899;-65
2021/05/02 02:52:46;;;;;;;1.05;0.40;;;23.60;37.50;;;;;;5034335;28;20923;-65
2021/05/02 02:55:15;;;;;;;0.73;0.30;;;23.60;37.50;;;;;;5033786;28;20450;-65
2021/05/02 02:57:53;;;;;;;1.85;0.30;;;23.60;37.50;;;;;;5034127;28;20387;-67
2021/05/02 03:00:25;;;;;;;0.50;0.30;;;23.60;37.50;;;;;;5034189;28;20437;-66
2021/05/02 03:02:56;;;;;;;0.98;0.30;;;23.60;37.50;;;;;;5032974;28;20949;-65
2021/05/02 03:05:24;;;;;;;0.80;0.40;;;23.60;37.50;;;;;;5033815;28;20402;-65
2021/05/02 03:07:52;;;;;;;0.80;0.28;;;23.60;37.30;;;;;;5034329;28;20406;-66
2021/05/02 03:10:18;;;;;;;0.50;0.30;;;23.60;37.30;;;;;;5033920;28;20565;-65
2021/05/02 03:12:44;;;;;;;0.50;0.20;;;23.60;37.30;;;;;;5033074;28;20387;-65
2021/05/02 03:15:11;;;;;;;0.40;0.20;;;23.50;37.20;;;;;;5033459;28;20401;-64
2021/05/02 03:17:40;;;;;;;0.50;0.20;;;23.50;37.20;;;;;;5034103;28;20390;-65
2021/05/02 03:20:11;;;;;;;0.30;0.20;;;23.60;37.10;;;;;;5034348;28;20422;-64
2021/05/02 03:22:46;;;;;;;0.30;0.17;;;23.50;36.90;;;;;;5032829;28;20871;-65
2021/05/02 03:25:13;;;;;;;0.38;0.10;;;23.50;37.10;;;;;;5033250;28;20399;-65
2021/05/02 03:28:01;;;;;;;0.88;0.20;;;23.50;37.20;;;;;;5033725;28;20387;-66
2021/05/02 03:30:28;;;;;;;0.60;0.25;;;23.50;37.60;;;;;;5033625;28;20498;-66
2021/05/02 03:32:56;;;;;;;0.80;0.20;;;23.50;37.10;;;;;;5034005;28;20375;-65
2021/05/02 03:35:30;;;;;;;0.90;0.23;;;23.50;36.90;;;;;;5033165;28;20462;-65
2021/05/02 03:38:06;;;;;;;0.13;0.10;;;23.50;36.90;;;;;;5033476;28;20875;-65
2021/05/02 03:40:32;;;;;;;0.20;0.10;;;23.50;37.10;;;;;;5033668;28;20387;-69
2021/05/02 03:42:58;;;;;;;0.57;0.10;;;23.50;37.10;;;;;;5031953;28;20398;-62
2021/05/02 03:45:24;;;;;;;0.22;0.20;;;23.50;37.20;;;;;;5033183;28;20421;-67
2021/05/02 03:47:50;;;;;;;0.60;0.10;;;23.50;37.20;;;;;;5033301;28;20391;-68
2021/05/02 03:50:15;;;;;;;0.75;0.20;;;23.50;37.20;;;;;;5033138;28;20770;-65
2021/05/02 03:52:41;;;;;;;0.37;0.20;;;23.50;37.10;;;;;;5033312;28;20379;-68
2021/05/02 03:55:07;;;;;;;0.30;0.20;;;23.50;36.90;;;;;;5032663;28;20398;-68
2021/05/02 03:57:33;;;;;;;0.35;0.20;;;23.40;36.90;;;;;;5031965;28;20391;-68
2021/05/02 03:59:59;;;;;;;0.22;0.13;;;23.40;36.80;;;;;;5031760;28;20403;-68
2021/05/02 04:02:24;;;;;;;0.20;0.13;;;23.40;36.90;;;;;;5031789;28;20421;-64
2021/05/02 04:04:50;;;;;;;0.30;0.20;;;23.50;36.90;;;;;;5033127;28;20399;-65
2021/05/02 04:07:16;;;;;;;0.30;0.20;;;23.50;36.90;;;;;;5032366;28;20472;-68
2021/05/02 04:09:45;;;;;;;0.30;0.20;;;23.50;36.90;;;;;;5032917;28;20422;-65
2021/05/02 04:12:10;;;;;;;0.30;0.17;;;23.40;36.90;;;;;;5032732;28;20786;-68
2021/05/02 04:14:37;;;;;;;0.30;0.10;;;23.40;36.80;;;;;;5032845;28;20391;-67
2021/05/02 04:17:05;;;;;;;0.30;0.10;;;23.40;36.90;;;;;;5032696;28;20465;-68
2021/05/02 04:19:33;;;;;;;0.30;0.13;;;23.40;36.90;;;;;;5032879;28;20388;-68
2021/05/02 04:21:59;;;;;;;0.40;0.20;;;23.40;36.90;;;;;;5031194;28;20725;-66
2021/05/02 04:24:24;;;;;;;0.20;0.10;;;23.40;37.00;;;;;;5032649;28;20425;-68
2021/05/02 04:26:52;;;;;;;0.30;0.10;;;23.40;37.00;;;;;;5032693;28;20383;-68
2021/05/02 04:29:19;;;;;;;0.30;0.20;;;23.40;37.00;;;;;;5031992;28;20413;-68
2021/05/02 04:31:45;;;;;;;0.22;0.10;;;23.40;37.00;;;;;;5032786;28;20402;-68
2021/05/02 04:34:10;;;;;;;0.15;0.10;;;23.40;37.00;;;;;;5032539;28;20810;-68
2021/05/02 04:36:36;;;;;;;0.10;0.10;;;23.40;37.60;;;;;;5032497;28;20399;-67
2021/05/02 04:39:03;;;;;;;0.20;0.10;;;23.40;37.00;;;;;;5032184;28;20383;-68
2021/05/02 04:41:30;;;;;;;0.22;0.20;;;23.40;37.00;;;;;;5032103;28;20399;-68
2021/05/02 04:43:55;;;;;;;0.30;0.20;;;23.40;37.00;;;;;;5032314;28;20391;-69
2021/05/02 04:46:21;;;;;;;0.10;0.10;;;23.40;36.90;;;;;;5032422;28;20386;-67
2021/05/02 04:48:47;;;;;;;0.17;0.17;;;23.40;37.00;;;;;;5032189;28;20383;-69
2021/05/02 04:51:13;;;;;;;0.32;0.20;;;23.40;37.00;;;;;;5031706;28;20484;-67
2021/05/02 04:53:41;;;;;;;0.30;0.15;;;23.40;36.90;;;;;;5032189;28;20387;-68
2021/05/02 04:56:07;;;;;;;0.50;0.20;;;23.40;36.90;;;;;;5032061;28;20399;-68
2021/05/02 04:58:32;;;;;;;0.40;0.10;;;23.30;36.90;;;;;;5032174;28;20383;-68
2021/05/02 05:00:58;;;;;;;0.60;0.20;;;23.30;36.90;;;;;;5032040;28;20847;-68
2021/05/02 05:03:24;;;;;;;0.65;0.20;;;23.30;36.90;;;;;;5031666;28;20444;-68
2021/05/02 05:05:50;;;;;;;0.30;0.20;;;23.30;36.90;;;;;;5031773;28;20731;-69
2021/05/02 05:08:16;;;;;;;0.90;0.20;;;23.30;36.90;;;;;;5031929;28;20383;-68
2021/05/02 05:10:42;;;;;;;0.20;0.20;;;23.30;36.80;;;;;;5031889;28;20474;-68
2021/05/02 05:13:09;;;;;;;0.20;0.10;;;23.30;36.80;;;;;;5031657;28;20808;-68
2021/05/02 05:15:34;;;;;;;0.20;0.10;;;23.30;36.90;;;;;;5031848;28;20433;-68
2021/05/02 05:18:00;;;;;;;0.20;0.20;;;23.30;36.80;;;;;;5031788;28;20422;-68
2021/05/02 05:20:26;;;;;;;0.22;0.20;;;23.30;36.90;;;;;;5032078;28;20879;-67
2021/05/02 05:22:51;;;;;;;0.60;0.20;;;23.30;36.90;;;;;;5030452;28;20407;-68
2021/05/02 05:25:17;;;;;;;0.20;0.13;;;23.30;36.90;;;;;;5031159;28;20383;-63
2021/05/02 05:27:43;;;;;;;0.20;0.20;;;23.30;36.80;;;;;;5031720;28;20406;-66
2021/05/02 05:30:09;;;;;;;0.20;0.10;;;23.30;36.80;;;;;;5031441;28;20898;-65
2021/05/02 05:32:36;;;;;;;0.38;0.15;;;23.30;36.70;;;;;;5031720;28;20906;-65
2021/05/02 05:35:02;;;;;;;0.32;0.10;;;23.30;36.80;;;;;;5030961;28;20797;-66
2021/05/02 05:37:29;;;;;;;0.20;0.10;;;23.30;36.70;;;;;;5031406;28;20518;-66
2021/05/02 05:39:54;;;;;;;0.60;0.10;;;23.30;36.70;;;;;;5031554;28;20407;-64
2021/05/02 05:42:20;;;;;;;0.60;0.10;;;23.30;36.70;;;;;;5031442;28;20375;-66
2021/05/02 05:44:45;;;;;;;0.20;0.10;;;23.30;36.70;;;;;;5031494;28;20395;-65
2021/05/02 05:47:12;;;;;;;0.10;0.10;;;23.30;36.70;;;;;;5030979;28;20782;-65
2021/05/02 05:49:39;;;;;;;1.73;0.10;;;23.30;36.70;;;;;;5031094;28;20414;-65
2021/05/02 05:52:09;;;;;;;2.67;0.25;;;23.20;37.10;;;;;;5029451;28;20891;-66
2021/05/02 05:54:35;;;;;;;1.55;0.30;;;23.10;37.30;;;;;;5029772;28;20441;-63
2021/05/02 05:57:01;;;;;;;1.15;0.10;;;23.10;36.50;;;;;;5031367;28;20399;-63
2021/05/02 05:59:27;;;;;;;0.70;0.10;;;23.10;36.70;;;;;;5030599;28;20386;-66
2021/05/02 06:01:53;;;;;;;1.55;0.20;;;23.10;37.10;;;;;;5031138;28;20481;-66
2021/05/02 06:04:18;;;;;;;2.93;0.27;;;23.00;37.10;;;;;;5031273;28;20391;-66
2021/05/02 06:06:44;;;;;;;5.68;0.50;;;23.00;37.30;;;;;;5031017;28;20423;-66
2021/05/02 06:09:10;;;;;;;4.40;0.27;;;23.00;37.10;;;;;;5029599;28;20415;-69
2021/05/02 06:11:36;;;;;;;2.00;0.20;;;23.00;37.10;;;;;;5030811;28;20387;-68
2021/05/02 06:14:04;;;;;;;2.15;0.40;;;23.00;37.10;;;;;;5031213;28;20391;-69
2021/05/02 06:16:29;;;;;;;4.03;0.30;;;23.00;37.30;;;;;;5031221;28;20387;-61
2021/05/02 06:18:56;;;;;;;4.03;0.30;;;22.90;37.50;;;;;;5031145;28;20438;-67
2021/05/02 06:21:23;;;;;;;2.42;0.50;;;22.90;37.20;;;;;;5029234;28;20795;-68
2021/05/02 06:23:49;;;;;;;2.03;0.20;;;23.00;37.20;;;;;;5029797;28;20395;-68
2021/05/02 06:26:17;;;;;;;1.97;0.20;;;22.90;37.10;;;;;;5031027;28;20391;-67
2021/05/02 06:28:43;;;;;;;1.95;0.20;;;22.90;37.20;;;;;;5031003;28;20445;-68
2021/05/02 06:31:10;;;;;;;1.00;0.10;;;22.90;37.20;;;;;;5030815;28;20395;-69
2021/05/02 06:33:36;;;;;;;2.40;0.30;;;22.90;37.10;;;;;;5030863;28;20427;-68
2021/05/02 06:36:02;;;;;;;2.28;0.20;;;22.90;37.10;;;;;;5021352;28;20431;-62
2021/05/02 06:38:28;;;;;;;0.82;0.10;;;22.90;37.00;;;;;;5019744;28;20401;-63
2021/05/02 06:40:54;;;;;;;1.23;0.20;;;22.90;37.10;;;;;;5019672;28;20433;-63
2021/05/02 06:43:19;;;;;;;2.60;0.55;;;22.90;37.10;;;;;;5015844;28;20899;-69
2021/05/02 06:45:45;;;;;;;1.97;0.20;;;22.90;37.20;;;;;;5012409;28;20749;-69
2021/05/02 06:48:11;;;;;;;2.95;0.13;;;22.90;37.50;;;;;;5014669;28;20460;-71
2021/05/02 06:50:36;;;;;;;1.00;0.20;;;22.90;37.70;;;;;;5014628;28;20502;-67
2021/05/02 06:53:02;;;;;;;2.17;0.28;;;22.90;37.80;;;;;;5013298;28;20397;-66
2021/05/02 06:55:28;;;;;;;1.80;0.20;;;22.90;37.50;;;;;;5014635;28;20875;-62
2021/05/02 06:57:55;;;;;;;0.95;0.20;;;22.90;37.40;;;;;;5020948;28;20392;-69
2021/05/02 07:00:21;;;;;;;2.95;0.20;;;22.90;37.40;;;;;;5014497;28;20393;-68
2021/05/02 07:02:47;;;;;;;2.72;0.30;;;22.90;37.50;;;;;;5013235;28;20744;-69
2021/05/02 07:05:13;;;;;;;2.30;0.20;;;22.90;37.60;;;;;;5014198;28;20472;-69
2021/05/02 07:07:38;;;;;;;4.07;0.40;;;22.80;37.50;;;;;;5014093;28;20869;-69
2021/05/02 07:10:05;;;;;;;0.38;0.10;;;22.90;37.50;;;;;;5014122;28;20412;-68
2021/05/02 07:12:31;;;;;;;1.85;0.25;;;22.80;37.40;;;;;;5014259;28;20471;-69
2021/05/02 07:14:57;;;;;;;2.60;0.20;;;22.80;38.40;;;;;;5014158;28;20824;-66
2021/05/02 07:17:23;;;;;;;2.30;0.20;;;22.80;38.00;;;;;;5013671;28;20900;-67
2021/05/02 07:19:48;;;;;;;2.40;0.30;;;22.80;38.00;;;;;;5012909;28;20826;-68
2021/05/02 07:22:15;;;;;;;2.33;0.20;;;22.80;37.80;;;;;;5012455;28;20949;-66
2021/05/02 07:24:41;;;;;;;0.93;0.20;;;22.80;37.80;;;;;;5014134;28;20419;-67
2021/05/02 07:27:06;;;;;;;3.80;0.60;;;22.80;37.90;;;;;;5013907;28;20389;-66
2021/05/02 07:29:32;;;;;;;2.37;0.20;;;22.80;38.10;;;;;;5013470;28;20425;-67
2021/05/02 07:31:58;;;;;;;2.38;0.20;;;22.70;38.10;;;;;;5013830;28;20397;-68
2021/05/02 07:34:24;;;;;;;0.73;0.20;;;22.70;38.30;;;;;;5012537;28;20405;-68
2021/05/02 07:36:53;;;;;;;2.00;0.20;;;22.70;38.40;;;;;;5013886;28;20523;-66
2021/05/02 07:39:20;;;;;;;1.70;0.15;;;22.70;38.30;;;;;;5013227;28;20400;-67
2021/05/02 07:41:46;;;;;;;1.33;0.30;;;22.70;38.60;;;;;;5013761;28;20429;-67
2021/05/02 07:44:11;;;;;;;1.13;0.20;;;22.70;38.60;;;;;;5013609;28;20475;-67
2021/05/02 07:46:37;;;;;;;3.58;0.38;;;22.60;38.60;;;;;;5013571;28;20480;-66
2021/05/02 07:49:03;;;;;;;3.00;0.40;;;22.70;38.50;;;;;;5013142;28;20412;-60
2021/05/02 07:51:28;;;;;;;4.07;0.50;;;22.70;38.80;;;;;;5012869;28;20408;-68
2021/05/02 07:53:54;;;;;;;1.67;0.50;;;22.70;38.60;;;;;;5013232;28;20424;-67
2021/05/02 07:56:20;;;;;;;3.40;0.40;;;22.60;38.50;;;;;;5013395;28;20403;-66
2021/05/02 07:58:46;;;;;;;2.92;0.40;;;22.60;38.10;;;;;;5012499;28;20420;-68
2021/05/02 08:01:11;;;;;;;2.67;0.60;;;22.60;37.90;;;;;;5013117;28;20392;-68
2021/05/02 08:03:37;;;;;;;2.78;0.40;;;22.60;37.90;;;;;;5012387;28;20385;-67
2021/05/02 08:06:02;;;;;;;2.63;0.47;;;22.60;38.20;;;;;;5012646;28;20420;-68
2021/05/02 08:08:28;;;;;;;2.63;0.40;;;22.60;37.60;;;;;;5012394;28;20486;-68
2021/05/02 08:10:55;;;;;;;3.88;0.50;;;22.70;37.60;;;;;;5013089;28;20934;-66
2021/05/02 08:13:22;;;;;;;2.95;0.40;;;22.70;37.70;;;;;;5012093;28;20420;-67
2021/05/02 08:15:48;;;;;;;5.15;0.50;;;22.70;37.60;;;;;;5013142;28;20388;-67
2021/05/02 08:18:13;;;;;;;3.23;0.40;;;22.60;37.40;;;;;;5013018;28;20451;-67
2021/05/02 08:20:40;;;;;;;2.05;0.50;;;22.70;37.70;;;;;;5012974;28;20419;-67
2021/05/02 08:23:05;;;;;;;2.85;0.50;;;22.70;37.50;;;;;;5012846;28;20400;-67
2021/05/02 08:25:31;;;;;;;3.13;0.50;;;22.60;37.40;;;;;;5012500;28;20442;-66
2021/05/02 08:27:57;;;;;;;1.23;0.30;;;22.60;37.20;;;;;;5012884;28;20921;-60
2021/05/02 08:30:23;;;;;;;1.90;0.50;;;22.60;37.30;;;;;;5012796;28;20448;-63
2021/05/02 08:32:48;;;;;;;2.10;0.30;;;22.60;37.30;;;;;;5011816;28;20416;-60
2021/05/02 08:35:14;;;;;;;2.10;0.30;;;22.60;37.40;;;;;;5012670;28;20436;-65
2021/05/02 08:37:40;;;;;;;2.25;0.30;;;22.60;37.30;;;;;;5012505;28;21250;-65
2021/05/02 08:40:07;;;;;;;3.08;0.40;;;22.60;37.30;;;;;;5012581;28;20397;-61
2021/05/02 08:42:33;;;;;;;2.42;0.35;;;22.60;37.60;;;;;;5012452;28;20424;-61
2021/05/02 08:45:00;;;;;;;1.65;0.30;;;22.60;37.50;;;;;;5012583;28;20734;-62
2021/05/02 08:47:26;;;;;;;1.08;0.40;;;22.60;37.50;;;;;;5012066;28;20384;-60
2021/05/02 08:49:52;;;;;;;2.13;0.40;;;22.60;37.30;;;;;;5012381;28;20889;-62
2021/05/02 08:52:18;;;;;;;1.10;0.25;;;22.70;37.40;;;;;;5011186;28;20393;-59
2021/05/02 08:54:43;;;;;;;1.97;0.37;;;22.60;37.30;;;;;;5012362;28;20395;-60
2021/05/02 08:57:09;;;;;;;2.78;0.30;;;22.60;37.30;;;;;;5011601;28;20471;-59
2021/05/02 08:59:35;;;;;;;3.00;0.40;;;22.60;37.40;;;;;;5010544;28;20388;-63
2021/05/02 09:02:00;;;;;;;2.58;0.52;;;22.60;37.70;;;;;;5012180;28;20884;-65
2021/05/02 09:04:26;;;;;;;3.70;0.30;;;22.60;37.50;;;;;;5012308;28;20389;-66
2021/05/02 09:06:52;;;;;;;2.60;0.30;;;22.60;37.30;;;;;;5011671;28;20473;-61
2021/05/02 09:09:18;;;;;;;3.08;0.50;;;22.70;37.60;;;;;;5013365;28;20948;-59
2021/05/02 09:11:46;;;;;;;3.80;0.32;;;22.70;37.20;;;;;;5011678;28;20409;-60
2021/05/02 09:14:19;;;;;;;2.70;0.30;;;22.70;37.90;;;;;;5012168;28;20480;-61
2021/05/02 09:16:57;;;;;;;1.73;0.30;;;22.70;37.10;;;;;;5012051;28;20726;-63
2021/05/02 09:19:31;;;;;;;2.20;0.40;;;22.70;37.20;;;;;;5011762;28;20397;-57
2021/05/02 09:22:11;;;;;;;4.15;0.50;;;22.70;37.20;;;;;;5011820;28;20449;-57
2021/05/02 09:24:37;;;;;;;3.63;0.40;;;22.70;37.30;;;;;;5011882;28;20865;-61
2021/05/02 09:27:12;;;;;;;4.20;0.40;;;22.70;37.80;;;;;;5013691;28;20869;-59
2021/05/02 09:29:39;;;;;;;2.50;0.40;;;22.70;37.30;;;;;;5024150;28;20420;-58
2021/05/02 09:32:06;;;;;;;3.38;0.30;;;22.70;37.40;;;;;;5011759;28;20451;-58
2021/05/02 09:34:33;;;;;;;1.75;0.30;;;22.70;37.30;;;;;;5010382;28;20963;-59
2021/05/02 09:37:03;;;;;;;2.33;0.30;;;22.70;37.10;;;;;;5014566;28;20903;-57
2021/05/02 09:39:35;;;;;;;1.77;0.30;;;22.70;37.10;;;;;;5025450;28;20391;-59
2021/05/02 09:42:09;;;;;;;2.80;0.30;;;22.70;37.00;;;;;;5031059;28;20566;-61
2021/05/02 09:44:42;;;;;;;2.72;0.43;;;22.70;36.90;;;;;;5033118;28;20438;-61
2021/05/02 09:47:31;;;;;;;2.00;0.50;;;22.70;37.10;;;;;;5036982;28;20373;-59
2021/05/02 09:50:04;;;;;;;3.42;0.50;;;22.70;37.10;;;;;;5050398;28;20439;-59
2021/05/02 09:52:50;;;;;;;4.10;0.50;;;22.70;37.20;;;;;;5050991;28;20435;-62
2021/05/02 09:55:26;;;;;;;3.10;0.40;;;22.70;37.30;;;;;;5049863;28;20911;-60
2021/05/02 09:57:56;;;;;;;2.83;0.50;;;22.60;37.40;;;;;;5051245;28;20393;-60
2021/05/02 10:00:56;;;;;;;2.95;0.30;;;22.60;37.50;;;;;;5051247;28;20400;-60
2021/05/02 10:03:26;;;;;;;2.33;0.35;;;22.50;37.60;;;;;;5046169;28;20397;-60
2021/05/02 10:05:55;;;;;;;1.70;0.38;;;22.50;37.80;;;;;;5050554;28;20404;-61
2021/05/02 10:08:22;;;;;;;3.60;0.40;;;22.50;37.60;;;;;;5050514;28;20448;-62
2021/05/02 10:10:48;;;;;;;1.37;0.60;;;22.50;37.80;;;;;;5021433;28;20468;-60
2021/05/02 10:13:14;;;;;;;3.20;0.70;;;22.50;38.00;;;;;;5015801;28;20391;-60
2021/05/02 10:15:41;;;;;;;1.40;0.40;;;22.50;37.90;;;;;;5018452;28;20401;-60
2021/05/02 10:18:09;;;;;;;2.67;0.60;;;22.50;37.90;;;;;;5017202;28;20424;-67
2021/05/02 10:20:35;;;;;;;1.60;0.50;;;22.50;37.90;;;;;;5021400;28;20878;-61
2021/05/02 10:23:03;;;;;;;2.70;0.40;;;22.40;38.00;;;;;;5025339;28;20462;-59
2021/05/02 10:25:29;;;;;;;2.55;0.40;;;22.40;38.00;;;;;;5022414;28;20406;-60
2021/05/02 10:27:55;;;;;;;1.85;0.45;;;22.40;38.00;;;;;;5024618;28;20389;-60
2021/05/02 10:30:21;;;;;;;2.25;0.40;;;22.40;37.90;;;;;;5022006;28;20480;-60
2021/05/02 10:32:59;;;;;;;0.98;0.40;;;22.40;38.10;;;;;;5026217;28;20389;-67
2021/05/02 10:35:25;;;;;;;2.78;0.40;;;22.40;38.10;;;;;;5034396;28;20438;-60
2021/05/02 10:37:55;;;;;;;1.00;0.40;;;22.40;38.00;;;;;;5034412;28;20815;-59
2021/05/02 10:40:21;;;;;;;2.05;0.30;;;22.30;37.80;;;;;;5034452;28;20387;-59
2021/05/02 10:42:53;;;;;;;1.58;0.30;;;22.40;38.00;;;;;;5034557;28;20397;-60
2021/05/02 10:45:27;;;;;;;2.13;0.32;;;22.40;37.90;;;;;;5034247;28;20445;-60
2021/05/02 10:47:54;;;;;;;3.70;0.50;;;22.40;37.90;;;;;;5034448;28;20406;-60
2021/05/02 10:50:46;;;;;;;1.05;0.40;;;22.40;37.90;;;;;;5034220;28;21064;-61
2021/05/02 10:53:14;;;;;;;1.77;0.40;;;22.40;37.80;;;;;;5034548;28;20406;-64
2021/05/02 10:55:42;;;;;;;1.80;0.40;;;22.30;37.80;;;;;;5033882;28;20395;-63
2021/05/02 10:58:36;;;;;;;1.00;0.50;;;22.40;37.90;;;;;;5034166;28;20918;-60
2021/05/02 11:01:10;;;;;;;2.78;0.50;;;22.50;37.80;;;;;;5029573;28;20403;-60
2021/05/02 11:03:39;;;;;;;2.47;0.40;;;22.50;37.60;;;;;;5048447;28;20395;-59
2021/05/02 11:06:13;;;;;;;2.60;0.55;;;22.50;37.70;;;;;;5034013;28;20426;-60
2021/05/02 11:08:57;;;;;;;3.13;0.57;;;22.50;37.90;;;;;;5030909;28;20437;-59
2021/05/02 11:11:32;;;;;;;2.97;0.60;;;22.50;38.00;;;;;;5033618;28;20407;-62
2021/05/02 11:14:10;;;;;;;3.00;0.60;;;22.50;38.50;;;;;;5033620;28;20812;-61
2021/05/02 11:16:46;;;;;;;3.03;0.65;;;22.50;38.40;;;;;;5032369;28;20898;-62
2021/05/02 11:19:19;;;;;;;2.58;0.60;;;22.60;38.60;;;;;;5033401;28;20394;-64
2021/05/02 11:24:24;;;;;;;2.90;0.80;;;22.70;38.50;;;;;;5033679;28;20490;-62
2021/05/02 11:29:34;;;;;;;3.67;1.00;;;22.80;38.40;;;;;;5031427;28;20938;-62
2021/05/02 11:32:01;;;;;;;3.20;1.00;;;22.80;38.50;;;;;;5028559;28;20391;-59
2021/05/02 11:34:26;;;;;;;4.88;1.20;;;22.90;38.90;;;;;;5029530;28;20537;-63
2021/05/02 11:36:52;;;;;;;4.40;1.05;;;22.90;40.50;;;;;;5033195;28;20466;-64
2021/05/02 11:39:29;;;;;;;3.53;1.07;;;22.90;40.40;;;;;;5032826;28;20399;-62
2021/05/02 11:42:05;;;;;;;4.00;1.00;;;22.90;39.60;;;;;;5032473;28;20506;-65
2021/05/02 11:44:33;;;;;;;3.00;1.05;;;22.90;39.30;;;;;;5032917;28;20395;-58
2021/05/02 11:47:10;;;;;;;1.90;0.90;;;22.90;39.30;;;;;;5032579;28;20394;-61
2021/05/02 11:49:37;;;;;;;3.58;0.98;;;22.90;38.70;;;;;;5028336;28;20459;-58
2021/05/02 11:52:03;;;;;;;4.25;0.93;;;22.90;38.10;;;;;;5027065;28;20424;-58
2021/05/02 11:54:30;;;;;;;3.33;1.10;;;22.90;39.10;;;;;;5019281;28;20411;-60
2021/05/02 11:56:56;;;;;;;4.60;1.17;;;22.90;39.40;;;;;;5016500;28;20387;-60
2021/05/02 11:59:22;;;;;;;4.23;1.00;;;22.90;39.30;;;;;;5031539;28;20399;-65
2021/05/02 12:01:48;;;;;;;2.88;0.80;;;22.90;39.30;;;;;;5030795;28;21109;-58
2021/05/02 12:04:19;;;;;;;3.22;0.90;;;22.90;39.10;;;;;;5032518;28;20381;-59
2021/05/02 12:06:46;;;;;;;3.88;1.05;;;22.90;38.90;;;;;;5030494;28;20403;-59
2021/05/02 12:09:23;;;;;;;2.25;0.90;;;22.90;39.30;;;;;;5030532;28;20406;-63
2021/05/02 12:11:57;;;;;;;2.45;0.80;;;22.90;38.60;;;;;;5031924;28;20394;-63
2021/05/02 12:14:25;;;;;;;5.97;1.00;;;22.80;38.50;;;;;;5032621;28;20391;-59
2021/05/02 12:16:55;;;;;;;5.90;1.00;;;22.80;38.60;;;;;;5031114;28;20395;-58
2021/05/02 12:19:21;;;;;;;3.22;0.90;;;22.90;38.50;;;;;;5032545;28;20837;-59
2021/05/02 12:21:47;;;;;;;3.47;0.90;;;22.80;38.30;;;;;;5031949;28;20399;-58
2021/05/02 12:24:25;;;;;;;1.40;0.70;;;22.80;38.10;;;;;;5032590;28;20741;-60
2021/05/02 12:26:52;;;;;;;1.85;0.70;;;22.80;37.30;;;;;;5032229;28;20383;-60
2021/05/02 12:29:30;;;;;;;2.67;0.85;;;22.80;37.40;;;;;;5032318;28;20477;-60
2021/05/02 12:31:57;;;;;;;1.00;0.70;;;22.80;37.50;;;;;;5032135;28;20390;-60
2021/05/02 12:34:25;;;;;;;1.13;0.70;;;22.80;37.50;;;;;;5032383;28;20875;-60
2021/05/02 12:36:52;;;;;;;1.20;0.80;;;22.70;37.40;;;;;;5032272;28;20395;-60
2021/05/02 12:39:18;;;;;;;1.15;0.60;;;22.80;37.50;;;;;;5031812;28;20394;-60
2021/05/02 12:41:51;;;;;;;1.98;0.70;;;22.70;37.40;;;;;;5025644;28;20406;-60
2021/05/02 12:44:20;;;;;;;2.20;0.90;;;22.70;37.40;;;;;;5012169;28;20389;-60
2021/05/02 12:46:51;;;;;;;2.42;0.80;;;22.70;37.50;;;;;;5012552;28;20425;-66
2021/05/02 12:49:19;;;;;;;1.20;0.70;;;22.70;37.40;;;;;;5021183;28;20445;-60
2021/05/02 12:51:49;;;;;;;1.55;0.80;;;22.70;37.40;;;;;;5023290;28;20756;-60
2021/05/02 12:54:19;;;;;;;1.58;0.60;;;22.70;37.40;;;;;;5020659;28;20381;-59
2021/05/02 12:57:03;;;;;;;1.90;0.80;;;22.60;37.50;;;;;;5019753;28;20397;-59
2021/05/02 13:02:15;;;;;;;1.88;0.77;;;22.60;37.40;;;;;;5029501;28;20383;-59